LFRG 301030Z AUTO 11006KT 050V180 9999 4500 NSC 23/10 Q1021

ElémentsDécodage
LFRG Station météo située sur l'aérodrome de DEAUVILLE Saint-Gatien
301030Z émis le 30 du mois à 10h30 UTC
AUTO Bulletin édité par un automate
11006KT vent du 110°, 06 noeuds
050V180 vent de direction variable entre 050° et 180°
9999 visibilité horizontale supérieure à 10 Km
4500 visibilité horizontale de 4500 mètres
NSC pas de nuage significatif (pas de nuage <5000ft, pas de CB)
23/10 température 23°C, point de rosée 10°C
 soit une humidité relative de 44%
Q1021 la pression au niveau de la mer (QNH) est de 1021 hPa